Time;durP1;ratioP1;P1;durP2;ratioP2;P2;SDS_P1;SDS_P2;PMS_P1;PMS_P2;Temp;Humidity;BMP_temperature;BMP_pressure;BME280_temperature;BME280_humidity;BME280_pressure;Samples;Min_cycle;Max_cycle;Signal;HPM_P1;HPM_P2
2023/10/23 00:01:08;;;;;;;;;;;19.90;52.30;;;;;;1518617;78;1187;-61
2023/10/23 00:03:10;;;;;;;;;;;19.90;52.30;;;;;;1512913;76;724;-61
2023/10/23 00:05:12;;;;;;;;;;;19.80;52.30;;;;;;1514469;77;1956;-60
2023/10/23 00:07:14;;;;;;;;;;;19.90;52.30;;;;;;1512584;76;701;-60
2023/10/23 00:09:16;;;;;;;;;;;19.80;52.30;;;;;;1519865;78;747;-58
2023/10/23 00:11:24;;;;;;;;;;;19.90;52.40;;;;;;1520634;78;1175;-58
2023/10/23 00:13:25;;;;;;;;;;;19.80;52.30;;;;;;1510188;76;729;-59
2023/10/23 00:15:27;;;;;;;;;;;19.80;52.30;;;;;;1515291;78;690;-58
2023/10/23 00:17:29;;;;;;;;;;;19.90;52.40;;;;;;1514790;78;1519;-57
2023/10/23 00:19:31;;;;;;;;;;;19.90;52.40;;;;;;1512530;78;794;-58
2023/10/23 00:21:33;;;;;;;;;;;19.90;52.40;;;;;;1518760;76;1128;-57
2023/10/23 00:23:35;;;;;;;;;;;19.90;52.40;;;;;;1509130;78;790;-59
2023/10/23 00:25:37;;;;;;;;;;;19.90;52.50;;;;;;1512163;77;1927;-57
2023/10/23 00:27:39;;;;;;;;;;;19.80;52.30;;;;;;1515163;77;737;-56
2023/10/23 00:29:41;;;;;;;;;;;19.80;52.30;;;;;;1505177;78;714;-56
2023/10/23 00:31:42;;;;;;;;;;;19.80;52.40;;;;;;1511970;76;1342;-57
2023/10/23 00:33:44;;;;;;;;;;;19.80;52.30;;;;;;1510638;78;675;-58
2023/10/23 00:35:46;;;;;;;;;;;19.80;52.30;;;;;;1511481;78;754;-57
2023/10/23 00:37:48;;;;;;;;;;;19.80;52.30;;;;;;1518238;77;746;-56
2023/10/23 00:39:50;;;;;;;;;;;19.80;52.40;;;;;;1500879;78;755;-56
2023/10/23 00:41:52;;;;;;;;;;;19.80;52.40;;;;;;1508694;76;1145;-59
2023/10/23 00:43:54;;;;;;;;;;;19.80;52.40;;;;;;1511643;76;725;-59
2023/10/23 00:45:57;;;;;;;;;;;19.80;52.40;;;;;;1511351;78;1958;-59
2023/10/23 00:47:59;;;;;;;;;;;19.80;52.40;;;;;;1508912;76;826;-57
2023/10/23 00:50:03;;;;;;;;;;;19.80;52.40;;;;;;1506203;78;797;-58
2023/10/23 00:52:05;;;;;;;;;;;19.80;52.40;;;;;;1513152;78;1159;-58
2023/10/23 00:54:07;;;;;;;;;;;19.80;52.40;;;;;;1489162;79;727;-59
2023/10/23 00:56:09;;;;;;;;;;;19.80;52.40;;;;;;1503694;76;737;-56
2023/10/23 00:58:11;;;;;;;;;;;19.80;52.40;;;;;;1504630;78;796;-56
2023/10/23 01:00:13;;;;;;;;;;;19.80;52.40;;;;;;1513783;77;1515;-59
2023/10/23 01:02:15;;;;;;;;;;;19.80;52.50;;;;;;1515743;78;1190;-59
2023/10/23 01:04:17;;;;;;;;;;;19.80;52.40;;;;;;1505960;76;721;-59
2023/10/23 01:06:19;;;;;;;;;;;19.80;52.50;;;;;;1506871;78;1936;-59
2023/10/23 01:08:21;;;;;;;;;;;19.80;52.40;;;;;;1504168;76;726;-59
2023/10/23 01:10:23;;;;;;;;;;;19.80;52.40;;;;;;1504438;78;686;-57
2023/10/23 01:12:25;;;;;;;;;;;19.90;52.50;;;;;;1501862;78;1201;-57
2023/10/23 01:14:27;;;;;;;;;;;19.80;52.50;;;;;;1504979;76;1350;-58
2023/10/23 01:16:28;;;;;;;;;;;19.80;52.50;;;;;;1500428;77;759;-58
2023/10/23 01:18:30;;;;;;;;;;;19.80;52.40;;;;;;1505075;78;890;-59
2023/10/23 01:20:32;;;;;;;;;;;19.80;52.50;;;;;;1506343;78;740;-59
2023/10/23 01:22:34;;;;;;;;;;;19.90;52.60;;;;;;1515881;76;1060;-60
2023/10/23 01:24:36;;;;;;;;;;;19.80;52.50;;;;;;1513631;78;708;-60
2023/10/23 01:26:43;;;;;;;;;;;19.80;52.60;;;;;;1496148;79;1921;-60
2023/10/23 01:28:41;;;;;;;;;;;19.80;52.60;;;;;;1498354;78;1613;-61
2023/10/23 01:30:44;;;;;;;;;;;19.80;52.60;;;;;;1512900;76;1121;-62
2023/10/23 01:32:46;;;;;;;;;;;19.90;52.60;;;;;;1503485;78;692;-59
2023/10/23 01:34:48;;;;;;;;;;;19.80;52.50;;;;;;1514667;78;818;-59
2023/10/23 01:36:50;;;;;;;;;;;19.80;52.50;;;;;;1515022;78;738;-59
2023/10/23 01:38:52;;;;;;;;;;;19.80;52.50;;;;;;1515200;76;727;-59
2023/10/23 01:40:54;;;;;;;;;;;19.90;52.60;;;;;;1510888;78;1124;-59
2023/10/23 01:42:56;;;;;;;;;;;19.80;52.60;;;;;;1509426;77;1352;-59
2023/10/23 01:44:58;;;;;;;;;;;19.80;52.60;;;;;;1506538;76;775;-59
2023/10/23 01:47:00;;;;;;;;;;;19.80;52.60;;;;;;1504849;78;1981;-59
2023/10/23 01:49:01;;;;;;;;;;;19.80;52.60;;;;;;1506906;78;851;-59
2023/10/23 01:51:03;;;;;;;;;;;19.80;52.50;;;;;;1504050;78;1097;-58
2023/10/23 01:53:05;;;;;;;;;;;19.80;52.60;;;;;;1494589;78;707;-59
2023/10/23 01:55:07;;;;;;;;;;;19.80;52.60;;;;;;1510180;76;669;-60
2023/10/23 01:57:11;;;;;;;;;;;19.80;52.60;;;;;;1510707;77;1359;-58
2023/10/23 01:59:13;;;;;;;;;;;19.90;52.70;;;;;;1513104;78;1260;-56
2023/10/23 02:01:24;;;;;;;;;;;19.80;52.60;;;;;;1502693;78;1191;-58
2023/10/23 02:03:26;;;;;;;;;;;19.90;52.80;;;;;;1511296;76;816;-59
2023/10/23 02:05:28;;;;;;;;;;;19.80;52.60;;;;;;1515206;78;771;-59
2023/10/23 02:07:30;;;;;;;;;;;19.80;52.60;;;;;;1506680;76;1937;-59
2023/10/23 02:09:32;;;;;;;;;;;19.80;52.60;;;;;;1510595;76;717;-59
2023/10/23 02:11:34;;;;;;;;;;;19.80;52.60;;;;;;1515746;76;1342;-59
2023/10/23 02:13:36;;;;;;;;;;;19.80;52.60;;;;;;1514076;76;903;-57
2023/10/23 02:15:38;;;;;;;;;;;19.80;52.60;;;;;;1513726;78;735;-59
2023/10/23 02:17:40;;;;;;;;;;;19.80;52.60;;;;;;1513639;78;687;-59
2023/10/23 02:19:42;;;;;;;;;;;19.80;52.60;;;;;;1511271;77;719;-59
2023/10/23 02:21:49;;;;;;;;;;;19.80;52.60;;;;;;1510910;76;1133;-59
2023/10/23 02:23:47;;;;;;;;;;;19.80;52.60;;;;;;1510757;78;1629;-60
2023/10/23 02:25:49;;;;;;;;;;;19.90;52.70;;;;;;1515793;77;1575;-59
2023/10/23 02:27:51;;;;;;;;;;;19.90;52.70;;;;;;1513164;76;754;-60
2023/10/23 02:29:53;;;;;;;;;;;19.80;52.70;;;;;;1514566;78;703;-59
2023/10/23 02:31:55;;;;;;;;;;;19.80;52.70;;;;;;1514061;77;1164;-57
2023/10/23 02:33:57;;;;;;;;;;;19.80;52.70;;;;;;1511061;78;668;-60
2023/10/23 02:35:59;;;;;;;;;;;19.80;52.70;;;;;;1508121;76;702;-58
2023/10/23 02:38:01;;;;;;;;;;;19.80;52.70;;;;;;1503763;77;733;-60
2023/10/23 02:40:03;;;;;;;;;;;19.80;52.70;;;;;;1519939;77;1785;-60
2023/10/23 02:42:05;;;;;;;;;;;19.80;52.80;;;;;;1505418;78;1157;-60
2023/10/23 02:44:07;;;;;;;;;;;19.80;52.80;;;;;;1515685;76;687;-58
2023/10/23 02:46:10;;;;;;;;;;;19.80;52.80;;;;;;1506126;78;1918;-59
2023/10/23 02:48:12;;;;;;;;;;;19.80;52.80;;;;;;1510997;77;782;-59
2023/10/23 02:50:14;;;;;;;;;;;19.90;52.90;;;;;;1511017;77;801;-57
2023/10/23 02:52:16;;;;;;;;;;;19.80;52.80;;;;;;1517051;78;1538;-58
2023/10/23 02:54:18;;;;;;;;;;;19.80;52.80;;;;;;1520101;76;702;-59
2023/10/23 02:56:20;;;;;;;;;;;19.80;52.80;;;;;;1510709;77;699;-59
2023/10/23 02:58:22;;;;;;;;;;;19.80;52.90;;;;;;1515530;77;723;-59
2023/10/23 03:00:24;;;;;;;;;;;19.80;52.80;;;;;;1505071;78;740;-59
2023/10/23 03:02:25;;;;;;;;;;;19.80;52.90;;;;;;1503414;78;1122;-59
2023/10/23 03:04:27;;;;;;;;;;;19.90;53.00;;;;;;1514197;76;864;-57
2023/10/23 03:06:29;;;;;;;;;;;19.80;52.80;;;;;;1512020;76;1930;-59
2023/10/23 03:08:31;;;;;;;;;;;19.90;53.00;;;;;;1513844;78;706;-59
2023/10/23 03:10:33;;;;;;;;;;;19.90;52.90;;;;;;1503179;77;935;-58
2023/10/23 03:12:39;;;;;;;;;;;19.80;52.90;;;;;;1516426;78;1120;-59
2023/10/23 03:14:39;;;;;;;;;;;19.80;52.90;;;;;;1511649;76;1249;-59
2023/10/23 03:16:40;;;;;;;;;;;19.80;53.00;;;;;;1516609;77;680;-59
2023/10/23 03:18:42;;;;;;;;;;;19.90;53.00;;;;;;1516384;77;764;-59
2023/10/23 03:20:44;;;;;;;;;;;19.80;52.90;;;;;;1513453;77;1555;-59
2023/10/23 03:22:46;;;;;;;;;;;19.90;53.00;;;;;;1514639;76;734;-56
2023/10/23 03:24:48;;;;;;;;;;;19.80;52.90;;;;;;1497318;78;861;-58
2023/10/23 03:26:50;;;;;;;;;;;19.80;53.00;;;;;;1507086;77;1928;-57
2023/10/23 03:28:52;;;;;;;;;;;19.80;53.00;;;;;;1505945;77;772;-60
2023/10/23 03:30:54;;;;;;;;;;;19.80;53.00;;;;;;1513008;77;1090;-59
2023/10/23 03:32:55;;;;;;;;;;;19.80;53.00;;;;;;1508170;76;649;-60
2023/10/23 03:35:00;;;;;;;;;;;19.80;53.00;;;;;;1501775;77;1234;-59
2023/10/23 03:37:01;;;;;;;;;;;19.90;53.10;;;;;;1504919;77;1627;-56
2023/10/23 03:39:03;;;;;;;;;;;19.90;53.10;;;;;;1512746;77;703;-57
2023/10/23 03:41:05;;;;;;;;;;;19.80;53.00;;;;;;1509067;76;1141;-58
2023/10/23 03:43:08;;;;;;;;;;;19.80;53.00;;;;;;1500510;77;720;-59
2023/10/23 03:45:10;;;;;;;;;;;19.80;53.00;;;;;;1514498;76;647;-58
2023/10/23 03:47:12;;;;;;;;;;;19.80;53.00;;;;;;1500038;77;1946;-58
2023/10/23 03:49:14;;;;;;;;;;;19.80;53.00;;;;;;1511910;78;1551;-58
2023/10/23 03:51:16;;;;;;;;;;;19.80;53.00;;;;;;1507895;77;1139;-58
2023/10/23 03:53:17;;;;;;;;;;;19.80;53.00;;;;;;1516067;76;680;-57
2023/10/23 03:55:19;;;;;;;;;;;19.80;53.00;;;;;;1500431;78;764;-56
2023/10/23 03:57:21;;;;;;;;;;;19.80;53.00;;;;;;1507601;77;660;-59
2023/10/23 03:59:23;;;;;;;;;;;19.90;53.10;;;;;;1505667;77;744;-59
2023/10/23 04:01:25;;;;;;;;;;;19.80;53.00;;;;;;1512636;76;1104;-60
2023/10/23 04:03:27;;;;;;;;;;;19.80;53.00;;;;;;1508499;77;1472;-59
2023/10/23 04:05:30;;;;;;;;;;;19.80;53.00;;;;;;1513325;77;803;-58
2023/10/23 04:07:32;;;;;;;;;;;19.80;53.00;;;;;;1501025;76;1930;-58
2023/10/23 04:09:34;;;;;;;;;;;19.80;53.00;;;;;;1519534;78;752;-57
2023/10/23 04:11:36;;;;;;;;;;;19.80;53.00;;;;;;1507787;77;1176;-57
2023/10/23 04:13:38;;;;;;;;;;;19.80;53.00;;;;;;1501366;76;690;-56
2023/10/23 04:15:40;;;;;;;;;;;19.80;53.00;;;;;;1516466;77;771;-59
2023/10/23 04:17:42;;;;;;;;;;;19.80;53.00;;;;;;1503641;77;1391;-57
2023/10/23 04:19:45;;;;;;;;;;;19.80;53.00;;;;;;1510782;77;727;-58
2023/10/23 04:21:47;;;;;;;;;;;19.90;53.10;;;;;;1508272;78;1731;-57
2023/10/23 04:23:49;;;;;;;;;;;19.80;53.00;;;;;;1510331;76;721;-58
2023/10/23 04:25:55;;;;;;;;;;;19.90;53.10;;;;;;1513283;78;809;-56
2023/10/23 04:27:56;;;;;;;;;;;19.80;53.10;;;;;;1501628;77;1925;-58
2023/10/23 04:30:01;;;;;;;;;;;19.80;53.00;;;;;;1513764;77;724;-57
2023/10/23 04:32:03;;;;;;;;;;;19.80;53.10;;;;;;1508387;76;1556;-58
2023/10/23 04:34:05;;;;;;;;;;;19.80;53.10;;;;;;1518995;77;716;-56
2023/10/23 04:36:07;;;;;;;;;;;19.80;53.10;;;;;;1509986;78;756;-55
2023/10/23 04:38:09;;;;;;;;;;;19.80;53.10;;;;;;1518729;77;798;-58
2023/10/23 04:40:11;;;;;;;;;;;19.80;53.00;;;;;;1512856;76;754;-56
2023/10/23 04:42:13;;;;;;;;;;;19.80;53.00;;;;;;1517479;77;1077;-59
2023/10/23 04:44:15;;;;;;;;;;;19.80;53.00;;;;;;1515506;76;768;-56
2023/10/23 04:46:17;;;;;;;;;;;19.80;53.00;;;;;;1511474;77;1404;-57
2023/10/23 04:48:19;;;;;;;;;;;19.80;53.10;;;;;;1506968;77;1923;-56
2023/10/23 04:50:22;;;;;;;;;;;19.80;53.00;;;;;;1508732;77;827;-58
2023/10/23 04:52:23;;;;;;;;;;;19.80;53.10;;;;;;1501917;76;1137;-57
2023/10/23 04:54:25;;;;;;;;;;;19.80;53.00;;;;;;1506731;78;683;-57
2023/10/23 04:56:27;;;;;;;;;;;19.80;53.00;;;;;;1511802;77;672;-57
2023/10/23 04:58:29;;;;;;;;;;;19.80;53.10;;;;;;1510850;77;736;-57
2023/10/23 05:00:33;;;;;;;;;;;19.80;53.10;;;;;;1510467;76;1305;-56
2023/10/23 05:02:35;;;;;;;;;;;19.80;53.10;;;;;;1499823;78;1117;-59
2023/10/23 05:04:36;;;;;;;;;;;19.80;53.10;;;;;;1507308;77;758;-58
2023/10/23 05:06:38;;;;;;;;;;;19.80;53.10;;;;;;1514293;76;769;-61
2023/10/23 05:08:40;;;;;;;;;;;19.80;53.10;;;;;;1517495;77;1931;-60
2023/10/23 05:10:42;;;;;;;;;;;19.80;53.10;;;;;;1509543;77;1160;-59
2023/10/23 05:12:46;;;;;;;;;;;19.80;53.10;;;;;;1500646;77;796;-60
2023/10/23 05:14:48;;;;;;;;;;;19.80;53.10;;;;;;1514273;76;1679;-59
2023/10/23 05:16:50;;;;;;;;;;;19.80;53.10;;;;;;1508034;78;673;-58
2023/10/23 05:18:52;;;;;;;;;;;19.80;53.20;;;;;;1512657;77;789;-58
2023/10/23 05:20:54;;;;;;;;;;;19.80;53.20;;;;;;1516741;77;1144;-59
2023/10/23 05:22:56;;;;;;;;;;;19.80;53.10;;;;;;1520126;76;644;-57
2023/10/23 05:24:57;;;;;;;;;;;19.80;53.20;;;;;;1518762;77;818;-58
2023/10/23 05:26:59;;;;;;;;;;;19.80;53.20;;;;;;1506849;78;1918;-58
2023/10/23 05:29:01;;;;;;;;;;;19.80;53.20;;;;;;1506015;77;652;-56
2023/10/23 05:31:03;;;;;;;;;;;19.80;53.20;;;;;;1510901;76;1095;-57
2023/10/23 05:33:05;;;;;;;;;;;19.80;53.10;;;;;;1517665;77;652;-57
2023/10/23 05:35:07;;;;;;;;;;;19.80;53.10;;;;;;1509175;77;693;-58
2023/10/23 05:37:09;;;;;;;;;;;19.80;53.20;;;;;;1509809;77;731;-56
2023/10/23 05:39:11;;;;;;;;;;;19.80;53.20;;;;;;1513190;76;654;-57
2023/10/23 05:41:14;;;;;;;;;;;19.80;53.20;;;;;;1505003;77;1609;-57
2023/10/23 05:43:17;;;;;;;;;;;19.80;53.20;;;;;;1516685;76;663;-58
2023/10/23 05:45:19;;;;;;;;;;;19.80;53.20;;;;;;1517637;78;768;-59
2023/10/23 05:47:21;;;;;;;;;;;19.80;53.20;;;;;;1517116;77;1926;-60
2023/10/23 05:49:22;;;;;;;;;;;19.80;53.20;;;;;;1513964;77;693;-60
2023/10/23 05:51:24;;;;;;;;;;;19.80;53.20;;;;;;1518314;77;1073;-58
2023/10/23 05:53:26;;;;;;;;;;;19.80;53.20;;;;;;1511515;76;711;-56
2023/10/23 05:55:28;;;;;;;;;;;19.80;53.20;;;;;;1514531;77;1546;-57
2023/10/23 05:57:31;;;;;;;;;;;19.80;53.20;;;;;;1506044;78;716;-56
2023/10/23 05:59:33;;;;;;;;;;;19.80;53.20;;;;;;1510518;77;716;-58
2023/10/23 06:01:35;;;;;;;;;;;19.80;53.20;;;;;;1519246;76;1159;-58
2023/10/23 06:03:37;;;;;;;;;;;19.80;53.20;;;;;;1511607;77;927;-56
2023/10/23 06:05:42;;;;;;;;;;;19.80;53.20;;;;;;1505961;77;818;-56
2023/10/23 06:07:44;;;;;;;;;;;19.80;53.30;;;;;;1496739;76;1928;-59
2023/10/23 06:09:46;;;;;;;;;;;19.80;53.30;;;;;;1509867;78;1501;-60
2023/10/23 06:11:48;;;;;;;;;;;19.80;53.30;;;;;;1510239;77;1191;-59
2023/10/23 06:13:50;;;;;;;;;;;19.80;53.30;;;;;;1514987;76;712;-58
2023/10/23 06:15:52;;;;;;;;;;;19.80;53.30;;;;;;1505835;77;802;-60
2023/10/23 06:17:53;;;;;;;;;;;19.80;53.30;;;;;;1512747;77;665;-60
2023/10/23 06:19:55;;;;;;;;;;;19.80;53.30;;;;;;1510136;77;685;-60
2023/10/23 06:21:57;;;;;;;;;;;19.80;53.30;;;;;;1514431;76;1087;-60
2023/10/23 06:23:59;;;;;;;;;;;19.80;53.30;;;;;;1508888;78;1555;-61
2023/10/23 06:26:02;;;;;;;;;;;19.80;53.30;;;;;;1509255;77;779;-59
2023/10/23 06:28:04;;;;;;;;;;;19.80;53.30;;;;;;1502913;77;1971;-61
2023/10/23 06:30:06;;;;;;;;;;;19.80;53.30;;;;;;1510744;76;784;-59
2023/10/23 06:32:08;;;;;;;;;;;19.80;53.40;;;;;;1504857;77;1130;-60
2023/10/23 06:34:10;;;;;;;;;;;19.80;53.40;;;;;;1510413;77;784;-61
2023/10/23 06:36:12;;;;;;;;;;;19.70;53.40;;;;;;1512918;78;756;-56
2023/10/23 06:38:14;;;;;;;;;;;19.80;53.30;;;;;;1509885;76;1590;-60
2023/10/23 06:40:16;;;;;;;;;;;19.80;53.30;;;;;;1510877;77;790;-58
2023/10/23 06:42:17;;;;;;;;;;;19.80;53.30;;;;;;1517264;77;1133;-58
2023/10/23 06:44:19;;;;;;;;;;;19.80;53.20;;;;;;1508072;76;724;-57
2023/10/23 06:46:21;;;;;;;;;;;19.80;53.30;;;;;;1506810;77;668;-59
2023/10/23 06:48:23;;;;;;;;;;;19.80;53.30;;;;;;1515527;77;1931;-58
2023/10/23 06:50:27;;;;;;;;;;;19.90;53.40;;;;;;1504997;76;738;-56
2023/10/23 06:52:28;;;;;;;;;;;19.80;53.30;;;;;;1517749;77;1584;-57
2023/10/23 06:54:30;;;;;;;;;;;19.80;53.40;;;;;;1511429;77;778;-58
2023/10/23 06:56:32;;;;;;;;;;;19.80;53.30;;;;;;1511576;78;729;-58
2023/10/23 06:58:34;;;;;;;;;;;19.80;53.40;;;;;;1514093;76;753;-56
2023/10/23 07:00:36;;;;;;;;;;;19.80;53.40;;;;;;1513387;78;849;-56
2023/10/23 07:02:38;;;;;;;;;;;19.90;53.40;;;;;;1513007;78;1121;-57
2023/10/23 07:04:40;;;;;;;;;;;19.80;53.30;;;;;;1514347;77;741;-57
2023/10/23 07:06:42;;;;;;;;;;;19.80;53.40;;;;;;1507320;76;1486;-59
2023/10/23 07:08:44;;;;;;;;;;;19.80;53.40;;;;;;1516610;77;1949;-59
2023/10/23 07:10:45;;;;;;;;;;;19.80;53.30;;;;;;1515839;77;1164;-58
2023/10/23 07:12:47;;;;;;;;;;;19.80;53.40;;;;;;1503436;78;711;-58
2023/10/23 07:14:49;;;;;;;;;;;19.80;53.40;;;;;;1517616;76;662;-57
2023/10/23 07:16:51;;;;;;;;;;;19.80;53.40;;;;;;1511772;76;1115;-59
2023/10/23 07:18:53;;;;;;;;;;;19.80;53.40;;;;;;1517670;77;1357;-60
2023/10/23 07:20:55;;;;;;;;;;;19.80;53.40;;;;;;1516908;77;1362;-60
2023/10/23 07:22:57;;;;;;;;;;;19.80;53.40;;;;;;1508400;78;1453;-61
2023/10/23 07:25:02;;;;;;;;;;;19.80;53.40;;;;;;1516994;77;1390;-60
2023/10/23 07:27:04;;;;;;;;;;;19.80;53.40;;;;;;1507191;76;1179;-58
2023/10/23 07:29:06;;;;;;;;;;;19.80;53.40;;;;;;1516788;77;1949;-56
2023/10/23 07:31:08;;;;;;;;;;;19.80;53.40;;;;;;1510005;77;1494;-57
2023/10/23 07:33:10;;;;;;;;;;;19.80;53.40;;;;;;1507618;77;1343;-58
2023/10/23 07:35:13;;;;;;;;;;;19.80;53.50;;;;;;1511253;77;1302;-59
2023/10/23 07:37:18;;;;;;;;;;;19.80;53.40;;;;;;1518179;76;1468;-58
2023/10/23 07:39:18;;;;;;;;;;;19.80;53.50;;;;;;1503343;77;1481;-58
2023/10/23 07:41:20;;;;;;;;;;;19.80;53.50;;;;;;1510562;78;1511;-61
2023/10/23 07:43:22;;;;;;;;;;;19.80;53.60;;;;;;1506775;76;1103;-59
2023/10/23 07:45:24;;;;;;;;;;;19.90;53.60;;;;;;1513177;78;1080;-59
2023/10/23 07:47:27;;;;;;;;;;;19.90;53.60;;;;;;1515583;78;1530;-59
2023/10/23 07:49:29;;;;;;;;;;;19.80;53.50;;;;;;1512737;77;1941;-60
2023/10/23 07:51:31;;;;;;;;;;;19.80;53.50;;;;;;1512958;77;1522;-60
2023/10/23 07:53:35;;;;;;;;;;;19.80;53.50;;;;;;1514344;76;1270;-61
2023/10/23 07:55:37;;;;;;;;;;;19.80;53.60;;;;;;1510054;77;1486;-61
2023/10/23 07:57:39;;;;;;;;;;;19.80;53.60;;;;;;1503491;77;1177;-60
2023/10/23 07:59:41;;;;;;;;;;;19.80;53.60;;;;;;1510978;76;1547;-60
2023/10/23 08:01:43;;;;;;;;;;;19.80;53.60;;;;;;1511990;77;1398;-60
2023/10/23 08:03:45;;;;;;;;;;;19.80;53.60;;;;;;1507293;77;1338;-60
2023/10/23 08:05:47;;;;;;;;;;;19.80;53.60;;;;;;1508069;77;1355;-61
2023/10/23 08:07:49;;;;;;;;;;;19.80;53.60;;;;;;1509653;76;1476;-58
2023/10/23 08:09:51;;;;;;;;;;;19.80;53.70;;;;;;1515624;77;2027;-56
2023/10/23 08:11:53;;;;;;;;;;;19.80;53.70;;;;;;1512590;77;1311;-58
2023/10/23 08:13:55;;;;;;;;;;;19.80;53.70;;;;;;1518950;76;1401;-58
2023/10/23 08:15:57;;;;;;;;;;;19.80;53.80;;;;;;1507252;78;1364;-56
2023/10/23 08:18:00;;;;;;;;;;;19.80;53.80;;;;;;1512078;77;1101;-59
2023/10/23 08:20:04;;;;;;;;;;;19.80;53.80;;;;;;1517498;77;1607;-60
2023/10/23 08:22:05;;;;;;;;;;;19.80;53.80;;;;;;1507883;76;1420;-59
2023/10/23 08:24:08;;;;;;;;;;;19.80;53.90;;;;;;1509958;78;1444;-60
2023/10/23 08:26:09;;;;;;;;;;;19.80;53.90;;;;;;1515719;78;1317;-59
2023/10/23 08:28:11;;;;;;;;;;;19.80;54.00;;;;;;1518669;77;1925;-60
2023/10/23 08:30:13;;;;;;;;;;;19.80;54.00;;;;;;1516742;76;1487;-60
2023/10/23 08:32:16;;;;;;;;;;;19.80;54.00;;;;;;1515854;77;1516;-59
2023/10/23 08:34:21;;;;;;;;;;;19.80;54.00;;;;;;1518423;76;1533;-56
2023/10/23 08:36:21;;;;;;;;;;;19.90;54.10;;;;;;1515782;76;1658;-58
2023/10/23 08:38:24;;;;;;;;;;;19.80;54.10;;;;;;1508193;77;1229;-59
2023/10/23 08:40:26;;;;;;;;;;;19.80;54.00;;;;;;1515575;78;1434;-58
2023/10/23 08:42:28;;;;;;;;;;;19.80;54.00;;;;;;1514498;77;1383;-61
2023/10/23 08:44:30;;;;;;;;;;;19.80;54.40;;;;;;1511651;76;1466;-60
2023/10/23 08:46:33;;;;;;;;;;;19.90;54.20;;;;;;1513428;77;1491;-58
2023/10/23 08:48:39;;;;;;;;;;;19.90;54.20;;;;;;1507849;78;1932;-60
2023/10/23 08:50:40;;;;;;;;;;;19.90;54.20;;;;;;1509949;77;1120;-57
2023/10/23 08:52:46;;;;;;;;;;;19.90;54.20;;;;;;1511297;76;1128;-56
2023/10/23 08:54:50;;;;;;;;;;;19.90;54.30;;;;;;1509156;78;1367;-59
2023/10/23 08:56:54;;;;;;;;;;;19.90;54.20;;;;;;1516801;77;1619;-59
2023/10/23 08:58:57;;;;;;;;;;;19.90;54.30;;;;;;1514485;76;1345;-59
2023/10/23 09:00:59;;;;;;;;;;;19.90;54.30;;;;;;1508252;77;1495;-58
2023/10/23 09:03:01;;;;;;;;;;;19.90;54.30;;;;;;1507554;77;1526;-59
2023/10/23 09:05:04;;;;;;;;;;;19.90;54.30;;;;;;1506948;77;1321;-61
2023/10/23 09:07:06;;;;;;;;;;;19.90;54.20;;;;;;1512122;76;1478;-60
2023/10/23 09:09:08;;;;;;;;;;;19.90;54.30;;;;;;1505555;77;1941;-60
2023/10/23 09:11:10;;;;;;;;;;;19.90;54.40;;;;;;1505711;77;1381;-61
2023/10/23 09:13:12;;;;;;;;;;;19.90;54.40;;;;;;1501627;77;1694;-62
2023/10/23 09:15:17;;;;;;;;;;;19.90;54.40;;;;;;1509629;76;1485;-60
2023/10/23 09:17:20;;;;;;;;;;;19.90;54.40;;;;;;1504353;77;1390;-60
2023/10/23 09:19:40;;;;;;;;;;;19.90;54.40;;;;;;1500311;77;1376;-60
2023/10/23 09:21:38;;;;;;;;;;;19.90;54.40;;;;;;1514444;76;1601;-59
2023/10/23 09:23:41;;;;;;;;;;;19.80;54.30;;;;;;1512354;77;1507;-59
2023/10/23 09:25:43;;;;;;;;;;;19.90;54.40;;;;;;1511641;76;1813;-58
2023/10/23 09:27:45;;;;;;;;;;;19.80;54.40;;;;;;1515329;76;1450;-59
2023/10/23 09:29:47;;;;;;;;;;;19.90;54.40;;;;;;1504193;77;1939;-60
2023/10/23 09:31:49;;;;;;;;;;;19.90;54.40;;;;;;1507302;77;1346;-60
2023/10/23 09:33:51;;;;;;;;;;;19.90;54.40;;;;;;1500895;77;1851;-58
2023/10/23 09:35:53;;;;;;;;;;;19.90;54.30;;;;;;1519209;77;1500;-60
2023/10/23 09:37:58;;;;;;;;;;;19.90;54.30;;;;;;1512581;76;1487;-60
2023/10/23 09:40:00;;;;;;;;;;;19.90;54.40;;;;;;1505572;76;1454;-60
2023/10/23 09:42:02;;;;;;;;;;;19.80;54.30;;;;;;1517965;77;1553;-57
2023/10/23 09:44:05;;;;;;;;;;;19.90;54.30;;;;;;1519983;76;1512;-57
2023/10/23 09:46:08;;;;;;;;;;;19.90;54.30;;;;;;1514954;78;1486;-58
2023/10/23 09:48:11;;;;;;;;;;;20.10;54.50;;;;;;1516587;78;1376;-59
2023/10/23 09:50:13;;;;;;;;;;;19.80;54.20;;;;;;1518447;78;1936;-59
2023/10/23 09:52:15;;;;;;;;;;;19.90;54.20;;;;;;1510713;76;1498;-58
2023/10/23 09:54:19;;;;;;;;;;;19.90;54.30;;;;;;1510687;78;1507;-60
2023/10/23 09:56:24;;;;;;;;;;;19.90;54.30;;;;;;1512232;78;1527;-58
2023/10/23 09:58:25;;;;;;;;;;;19.90;54.20;;;;;;1514103;78;1492;-57
2023/10/23 10:00:27;;;;;;;;;;;19.80;54.20;;;;;;1510616;76;1497;-58
2023/10/23 10:02:29;;;;;;;;;;;20.10;54.40;;;;;;1511192;78;1533;-61
2023/10/23 10:04:36;;;;;;;;;;;19.80;54.20;;;;;;1512224;78;1343;-61
2023/10/23 10:06:38;;;;;;;;;;;19.80;54.20;;;;;;1511909;76;1599;-60
2023/10/23 10:08:41;;;;;;;;;;;20.10;54.40;;;;;;1513659;78;1937;-61
2023/10/23 10:10:43;;;;;;;;;;;19.90;54.20;;;;;;1511550;77;1613;-60
2023/10/23 10:12:45;;;;;;;;;;;19.80;54.20;;;;;;1518479;77;1568;-61
2023/10/23 10:14:48;;;;;;;;;;;19.80;54.20;;;;;;1508329;76;1423;-60
2023/10/23 10:16:50;;;;;;;;;;;19.90;54.20;;;;;;1510189;78;1171;-57
2023/10/23 10:18:52;;;;;;;;;;;19.80;54.20;;;;;;1506370;77;1471;-60
2023/10/23 10:20:55;;;;;;;;;;;19.90;54.20;;;;;;1508958;77;1501;-60
2023/10/23 10:22:59;;;;;;;;;;;20.00;54.20;;;;;;1511107;76;1491;-61
2023/10/23 10:25:01;;;;;;;;;;;19.80;54.20;;;;;;1508808;77;1492;-60
2023/10/23 10:27:03;;;;;;;;;;;19.90;54.20;;;;;;1511029;78;1321;-61
2023/10/23 10:29:05;;;;;;;;;;;19.80;54.10;;;;;;1513082;77;1916;-59
2023/10/23 10:31:07;;;;;;;;;;;19.80;54.20;;;;;;1515393;76;1256;-59
2023/10/23 10:33:11;;;;;;;;;;;19.90;54.30;;;;;;1518261;78;1526;-60
2023/10/23 10:35:15;;;;;;;;;;;19.80;54.20;;;;;;1514283;77;1356;-59
2023/10/23 10:37:17;;;;;;;;;;;19.90;54.20;;;;;;1517949;77;1939;-60
2023/10/23 10:39:19;;;;;;;;;;;19.90;54.30;;;;;;1511905;77;1484;-59
2023/10/23 10:41:20;;;;;;;;;;;19.90;54.20;;;;;;1515929;78;1302;-59
2023/10/23 10:43:25;;;;;;;;;;;19.90;54.20;;;;;;1495402;78;1113;-60
2023/10/23 10:45:27;;;;;;;;;;;19.90;54.20;;;;;;1510470;76;1322;-60
2023/10/23 10:47:39;;;;;;;;;;;19.80;54.20;;;;;;1522495;77;1574;-61
2023/10/23 10:49:42;;;;;;;;;;;19.90;54.20;;;;;;1516111;78;1928;-61
2023/10/23 10:51:44;;;;;;;;;;;19.90;54.20;;;;;;1514244;77;1943;-60
2023/10/23 10:53:46;;;;;;;;;;;19.90;54.20;;;;;;1507030;76;1508;-60
2023/10/23 10:55:48;;;;;;;;;;;19.90;54.20;;;;;;1518573;77;1503;-60
2023/10/23 10:57:50;;;;;;;;;;;19.90;54.20;;;;;;1513773;78;1107;-59
2023/10/23 10:59:58;;;;;;;;;;;19.90;54.20;;;;;;1517793;77;1351;-61
2023/10/23 11:02:00;;;;;;;;;;;19.90;54.20;;;;;;1511863;78;1373;-59
2023/10/23 11:04:02;;;;;;;;;;;19.90;54.20;;;;;;1496450;77;1537;-59
2023/10/23 11:06:05;;;;;;;;;;;19.90;54.20;;;;;;1511921;77;1436;-61
2023/10/23 11:08:07;;;;;;;;;;;19.80;54.20;;;;;;1490103;77;1279;-60
2023/10/23 11:10:09;;;;;;;;;;;19.90;54.20;;;;;;1513449;78;1943;-61
2023/10/23 11:12:11;;;;;;;;;;;19.90;54.30;;;;;;1519847;77;1254;-60
2023/10/23 11:14:13;;;;;;;;;;;19.90;54.30;;;;;;1517427;77;1517;-61
2023/10/23 11:16:15;;;;;;;;;;;19.90;54.20;;;;;;1518427;77;1186;-61
2023/10/23 11:18:17;;;;;;;;;;;19.90;54.30;;;;;;1512749;77;1410;-60
2023/10/23 11:20:19;;;;;;;;;;;19.90;54.30;;;;;;1512886;78;1440;-60
2023/10/23 11:22:25;;;;;;;;;;;19.90;54.30;;;;;;1521187;76;1317;-60
2023/10/23 11:24:24;;;;;;;;;;;19.90;54.30;;;;;;1514448;78;1426;-60
2023/10/23 11:26:26;;;;;;;;;;;19.90;54.30;;;;;;1514167;77;1524;-60
2023/10/23 11:28:28;;;;;;;;;;;19.90;54.40;;;;;;1510493;77;1536;-60
2023/10/23 11:30:30;;;;;;;;;;;19.90;54.30;;;;;;1516123;76;1928;-60
2023/10/23 11:32:32;;;;;;;;;;;19.90;54.40;;;;;;1512146;78;1519;-60
2023/10/23 11:34:36;;;;;;;;;;;19.90;54.40;;;;;;1513736;77;1538;-60
2023/10/23 11:36:38;;;;;;;;;;;19.80;54.20;;;;;;1517678;77;1519;-61
2023/10/23 11:38:40;;;;;;;;;;;19.90;54.40;;;;;;1508904;76;1503;-60
2023/10/23 11:40:42;;;;;;;;;;;19.90;54.40;;;;;;1510623;78;1550;-60
2023/10/23 11:42:49;;;;;;;;;;;19.90;54.40;;;;;;1511708;78;1322;-61
2023/10/23 11:44:50;;;;;;;;;;;19.90;54.40;;;;;;1515286;76;1608;-60
2023/10/23 11:46:56;;;;;;;;;;;19.90;54.40;;;;;;1516843;78;1534;-60
2023/10/23 11:48:58;;;;;;;;;;;19.80;54.30;;;;;;1514138;77;1474;-60
2023/10/23 11:51:00;;;;;;;;;;;19.90;54.30;;;;;;1511836;78;1937;-60
2023/10/23 11:53:03;;;;;;;;;;;19.90;53.70;;;;;;1513827;76;1418;-60
2023/10/23 11:55:06;;;;;;;;;;;19.90;54.00;;;;;;1516486;78;1481;-59
2023/10/23 11:57:08;;;;;;;;;;;19.80;54.20;;;;;;1513032;78;1499;-59
2023/10/23 11:59:20;;;;;;;;;;;19.80;54.30;;;;;;1518015;78;1078;-60
2023/10/23 12:01:22;;;;;;;;;;;19.80;54.40;;;;;;1508131;76;1520;-57
2023/10/23 12:03:24;;;;;;;;;;;19.70;54.40;;;;;;1511376;78;1827;-58
2023/10/23 12:05:26;;;;;;;;;;;20.00;54.50;;;;;;1515185;78;1514;-59